Aérodrome :
LOGIN :

S'inscrire | Disclaimer

   EN    FR    IT 

 










Légende :    VFR   VFR Marginal   IFR   IFR Intensif   IFR Très Intensif
Visi : 
Plafond : 
>= 8 km
>= 3000ft
5 à 8 km
1000 à 3000 ft
1500m à 5 km
500 à 1000 ft
800 à 1500m
200 à 500 ft
< 800m
< 200 ft
Symboles :   Orages  Brouillard  Fortes neiges  Fortes précipitations  Vent > 20 kt
SIGMETs :   Divers  Orages  Givrage  Turbulence  Onde Orograph.  Cendres Volcan.






- Altitude de l'aérodrome : 31 ft
- Code IATA : INV


EGPE - Inverness

DERNIER METAR :
  • 141420Z 33007KT 9999 VCSH FEW012 SCT032 04/02 Q1012

METARs EXPIRÉS :
  • 141350Z 32008KT 9999 VCSH FEW015 SCT034 04/01 Q1012
  • 141320Z 30004KT 9999 VCSH FEW018 SCT034 05/02 Q1012
  • 141250Z 28003KT 9999 FEW018 FEW025CB 04/01 Q1011
  • 141220Z 34005KT 9999 FEW025CB SCT040 04/02 Q1011
  • 141150Z VRB01KT 9999 FEW022CB SCT035 03/02 Q1011

TAF TAF EGPE
Valide du 14 à 15h jusqu'au 15 à 00h UTC


141404Z 1415/1424 31004KT 9999 FEW020 SCT030
PROB30
TEMPO 1415/1424 7000 SHRA
ATIS : +44 1667 464 255



MET'MAP, la Météo Aéronautique d'un coup d'oeil ! - Copyright ORBIFLY Décembre 2007 - Disclaimer

ORBIFLY MET'MAP TEAM :

Programmation & Développement : Alexandra Zaïnal
Conception & Développement : Baudouin d'Aumeries
Co-Programmation & Développement : Marc-Olivier Méhu
Soutien technique & logistique : Manuel Goepfert

Contact : metmap@orbifly.com




SOURCES & CREDITS :

   NOAA